地図

経路データ

SID SEASON NUMBER BASIN SUBBASIN NAME ISO_TIME NATURE LAT LON WMO_WIND WMO_PRES WMO_AGENCY TRACK_TYPE DIST2LAND LANDFALL IFLAG USA_AGENCY USA_ATCF_ID USA_LAT USA_LON USA_RECORD USA_STATUS USA_WIND USA_PRES USA_SSHS USA_R34_NE USA_R34_SE USA_R34_SW USA_R34_NW USA_R50_NE USA_R50_SE USA_R50_SW USA_R50_NW USA_R64_NE USA_R64_SE USA_R64_SW USA_R64_NW USA_POCI USA_ROCI USA_RMW USA_EYE TOKYO_LAT TOKYO_LON TOKYO_GRADE TOKYO_WIND TOKYO_PRES TOKYO_R50_DIR TOKYO_R50_LONG TOKYO_R50_SHORT TOKYO_R30_DIR TOKYO_R30_LONG TOKYO_R30_SHORT TOKYO_LAND CMA_LAT CMA_LON CMA_CAT CMA_WIND CMA_PRES HKO_LAT HKO_LON HKO_CAT HKO_WIND HKO_PRES NEWDELHI_LAT NEWDELHI_LON NEWDELHI_GRADE NEWDELHI_WIND NEWDELHI_PRES NEWDELHI_CI NEWDELHI_DP NEWDELHI_POCI REUNION_LAT REUNION_LON REUNION_TYPE REUNION_WIND REUNION_PRES REUNION_TNUM REUNION_CI REUNION_RMW REUNION_R34_NE REUNION_R34_SE REUNION_R34_SW REUNION_R34_NW REUNION_R50_NE REUNION_R50_SE REUNION_R50_SW REUNION_R50_NW REUNION_R64_NE REUNION_R64_SE REUNION_R64_SW REUNION_R64_NW BOM_LAT BOM_LON BOM_TYPE BOM_WIND BOM_PRES BOM_TNUM BOM_CI BOM_RMW BOM_R34_NE BOM_R34_SE BOM_R34_SW BOM_R34_NW BOM_R50_NE BOM_R50_SE BOM_R50_SW BOM_R50_NW BOM_R64_NE BOM_R64_SE BOM_R64_SW BOM_R64_NW BOM_ROCI BOM_POCI BOM_EYE BOM_POS_METHOD BOM_PRES_METHOD NADI_LAT NADI_LON NADI_CAT NADI_WIND NADI_PRES WELLINGTON_LAT WELLINGTON_LON WELLINGTON_WIND WELLINGTON_PRES DS824_LAT DS824_LON DS824_STAGE DS824_WIND DS824_PRES TD9636_LAT TD9636_LON TD9636_STAGE TD9636_WIND TD9636_PRES TD9635_LAT TD9635_LON TD9635_WIND TD9635_PRES TD9635_ROCI NEUMANN_LAT NEUMANN_LON NEUMANN_CLASS NEUMANN_WIND NEUMANN_PRES MLC_LAT MLC_LON MLC_CLASS MLC_WIND MLC_PRES USA_GUST BOM_GUST BOM_GUST_PER REUNION_GUST REUNION_GUST_PER USA_SEAHGT USA_SEARAD_NE USA_SEARAD_SE USA_SEARAD_SW USA_SEARAD_NW STORM_SPEED STORM_DIR
1923224N13143 1923 50 WP MM NOT_NAMED 1923-08-12 10:00:00 NR 13.5000 143.200 main 1779 1776 __________O___ -1 13.5000 143.200 4 3 274
1923224N13143 1923 50 WP MM NOT_NAMED 1923-08-12 12:00:00 NR 13.5080 143.083 main 1776 1769 __________P___ -1 13.5080 143.083 4 4 274
1923224N13143 1923 50 WP MM NOT_NAMED 1923-08-12 15:00:00 NR 13.5232 142.896 main 1769 1763 __________P___ -1 13.5232 142.896 4 4 276
1923224N13143 1923 50 WP MM NOT_NAMED 1923-08-12 18:00:00 NR 13.5468 142.676 main 1763 1763 __________P___ -1 13.5468 142.676 4 5 277
1923224N13143 1923 50 WP MM NOT_NAMED 1923-08-12 21:00:00 NR 13.5838 142.405 main 1764 1760 __________P___ -1 13.5838 142.405 4 6 278
1923224N13143 1923 50 WP MM NOT_NAMED 1923-08-12 22:00:00 NR 13.6000 142.300 main 1760 1752 __________O___ -1 13.6000 142.300 4 7 279
1923224N13143 1923 50 WP MM NOT_NAMED 1923-08-13 00:00:00 NR 13.6387 142.065 main 1752 1745 __________P___ -1 13.6387 142.065 4 8 280
1923224N13143 1923 50 WP MM NOT_NAMED 1923-08-13 03:00:00 NR 13.7092 141.662 main 1745 1702 __________P___ -1 13.7092 141.662 4 8 280
1923224N13143 1923 50 WP MM NOT_NAMED 1923-08-13 06:00:00 NR 13.7892 141.218 main 1702 1661 __________P___ -1 13.7892 141.218 4 9 281
1923224N13143 1923 50 WP MM NOT_NAMED 1923-08-13 09:00:00 NR 13.8725 140.755 main 1661 1640 __________P___ -1 13.8725 140.755 4 9 280
1923224N13143 1923 50 WP MM NOT_NAMED 1923-08-13 10:00:00 NR 13.9000 140.600 main 1640 1608 __________O___ -1 13.9000 140.600 4 9 280
1923224N13143 1923 50 WP MM NOT_NAMED 1923-08-13 12:00:00 NR 13.9499 140.303 main 1608 1567 __________P___ -1 13.9499 140.303 4 9 280
1923224N13143 1923 50 WP MM NOT_NAMED 1923-08-13 15:00:00 NR 14.0248 139.851 main 1567 1516 __________P___ -1 14.0248 139.851 4 9 280
1923224N13143 1923 50 WP MM NOT_NAMED 1923-08-13 18:00:00 NR 14.0998 139.397 main 1516 1466 __________P___ -1 14.0998 139.397 4 9 280
1923224N13143 1923 50 WP MM NOT_NAMED 1923-08-13 21:00:00 NR 14.1749 138.948 main 1466 1456 __________P___ -1 14.1749 138.948 4 9 280
1923224N13143 1923 50 WP MM NOT_NAMED 1923-08-13 22:00:00 NR 14.2000 138.800 main 1456 1424 __________O___ -1 14.2000 138.800 4 9 280
1923224N13143 1923 50 WP MM NOT_NAMED 1923-08-14 00:00:00 NR 14.2497 138.516 main 1424 1384 __________P___ -1 14.2497 138.516 4 8 280
1923224N13143 1923 50 WP MM NOT_NAMED 1923-08-14 03:00:00 NR 14.3245 138.097 main 1384 1343 __________P___ -1 14.3245 138.097 4 8 280
1923224N13143 1923 50 WP MM NOT_NAMED 1923-08-14 06:00:00 NR 14.3995 137.677 main 1343 1292 __________P___ -1 14.3995 137.677 4 8 280
1923224N13143 1923 50 WP MM NOT_NAMED 1923-08-14 09:00:00 NR 14.4748 137.247 main 1292 1281 __________P___ -1 14.4748 137.247 4 9 280
1923224N13143 1923 50 WP MM NOT_NAMED 1923-08-14 10:00:00 NR 14.5000 137.100 main 1281 1249 __________O___ -1 14.5000 137.100 4 9 279
1923224N13143 1923 50 WP MM NOT_NAMED 1923-08-14 12:00:00 NR 14.5474 136.787 main 1249 1199 __________P___ -1 14.5474 136.787 4 9 279
1923224N13143 1923 50 WP MM NOT_NAMED 1923-08-14 15:00:00 NR 14.6184 136.304 main 1199 1148 __________P___ -1 14.6184 136.304 4 9 279
1923224N13143 1923 50 WP MM NOT_NAMED 1923-08-14 18:00:00 NR 14.6921 135.820 main 1148 1109 __________P___ -1 14.6921 135.820 4 9 279
1923224N13143 1923 50 WP MM NOT_NAMED 1923-08-14 21:00:00 NR 14.7716 135.351 main 1109 1088 __________P___ -1 14.7716 135.351 4 9 280
1923224N13143 1923 50 WP MM NOT_NAMED 1923-08-14 22:00:00 NR 14.8000 135.200 main 1088 1060 __________O___ -1 14.8000 135.200 4 9 282
1923224N13143 1923 50 WP MM NOT_NAMED 1923-08-15 00:00:00 NR 14.8632 134.919 main 1060 1022 __________P___ -1 14.8632 134.919 4 8 284
1923224N13143 1923 50 WP MM NOT_NAMED 1923-08-15 03:00:00 NR 14.9647 134.516 main 1022 984 __________P___ -1 14.9647 134.516 4 8 285
1923224N13143 1923 50 WP MM NOT_NAMED 1923-08-15 06:00:00 NR 15.0686 134.125 main 984 947 __________P___ -1 15.0686 134.125 4 8 285
1923224N13143 1923 50 WP MM NOT_NAMED 1923-08-15 09:00:00 NR 15.1686 133.733 main 947 937 __________P___ -1 15.1686 133.733 4 8 285
1923224N13143 1923 50 WP MM NOT_NAMED 1923-08-15 10:00:00 NR 15.2000 133.600 main 937 907 __________O___ -1 15.2000 133.600 4 8 281
1923224N13143 1923 50 WP MM NOT_NAMED 1923-08-15 12:00:00 NR 15.2476 133.327 main 907 871 __________P___ -1 15.2476 133.327 4 8 280
1923224N13143 1923 50 WP MM NOT_NAMED 1923-08-15 15:00:00 NR 15.3127 132.912 main 871 836 __________P___ -1 15.3127 132.912 4 8 279
1923224N13143 1923 50 WP MM NOT_NAMED 1923-08-15 18:00:00 NR 15.3813 132.487 main 836 793 __________P___ -1 15.3813 132.487 4 8 280
1923224N13143 1923 50 WP MM NOT_NAMED 1923-08-15 21:00:00 NR 15.4660 132.049 main 793 783 __________P___ -1 15.4660 132.049 4 9 282
1923224N13143 1923 50 WP MM NOT_NAMED 1923-08-15 22:00:00 NR 15.5000 131.900 main 783 760 __________O___ -1 15.5000 131.900 4 9 284
1923224N13143 1923 50 WP MM NOT_NAMED 1923-08-16 00:00:00 NR 15.5748 131.597 main 760 720 __________P___ -1 15.5748 131.597 4 9 286
1923224N13143 1923 50 WP MM NOT_NAMED 1923-08-16 03:00:00 NR 15.7060 131.131 main 720 690 __________P___ -1 15.7060 131.131 4 10 287
1923224N13143 1923 50 WP MM NOT_NAMED 1923-08-16 06:00:00 NR 15.8597 130.652 main 697 661 __________P___ -1 15.8597 130.652 4 10 290
1923224N13143 1923 50 WP MM NOT_NAMED 1923-08-16 09:00:00 NR 16.0361 130.164 main 661 650 __________P___ -1 16.0361 130.164 4 10 291
1923224N13143 1923 50 WP MM NOT_NAMED 1923-08-16 10:00:00 NR 16.1000 130.000 main 650 624 __________O___ -1 16.1000 130.000 4 10 294
1923224N13143 1923 50 WP MM NOT_NAMED 1923-08-16 12:00:00 NR 16.2348 129.696 main 624 591 __________P___ -1 16.2348 129.696 4 10 296
1923224N13143 1923 50 WP MM NOT_NAMED 1923-08-16 15:00:00 NR 16.4563 129.234 main 591 557 __________P___ -1 16.4563 129.234 4 10 296
1923224N13143 1923 50 WP MM NOT_NAMED 1923-08-16 18:00:00 NR 16.6902 128.743 main 557 528 __________P___ -1 16.6902 128.743 4 11 295
1923224N13143 1923 50 WP MM NOT_NAMED 1923-08-16 21:00:00 NR 16.9242 128.198 main 528 518 __________P___ -1 16.9242 128.198 4 12 294
1923224N13143 1923 50 WP MM NOT_NAMED 1923-08-16 22:00:00 NR 17.0000 128.000 main 518 495 __________O___ -1 17.0000 128.000 4 12 285
1923224N13143 1923 50 WP MM NOT_NAMED 1923-08-17 00:00:00 NR 17.0865 127.576 main 495 453 __________P___ -1 17.0865 127.576 4 13 281
1923224N13143 1923 50 WP MM NOT_NAMED 1923-08-17 03:00:00 NR 17.2088 126.885 main 453 385 __________P___ -1 17.2088 126.885 4 14 282
1923224N13143 1923 50 WP MM NOT_NAMED 1923-08-17 06:00:00 NR 17.3804 126.142 main 385 315 __________P___ -1 17.3804 126.142 4 15 288
1923224N13143 1923 50 WP MM NOT_NAMED 1923-08-17 09:00:00 NR 17.6673 125.364 main 317 290 __________P___ -1 17.6673 125.364 4 16 293
1923224N13143 1923 50 WP MM NOT_NAMED 1923-08-17 10:00:00 NR 17.8000 125.100 main 290 243 __________O___ -1 17.8000 125.100 4 18 305
1923224N13143 1923 50 WP MM NOT_NAMED 1923-08-17 12:00:00 NR 18.1940 124.578 main 243 167 __________P___ -1 18.1940 124.578 4 20 311
1923224N13143 1923 50 WP MM NOT_NAMED 1923-08-17 15:00:00 NR 18.9124 123.769 main 167 145 __________P___ -1 18.9124 123.769 4 22 314
1923224N13143 1923 50 WP MM NOT_NAMED 1923-08-17 18:00:00 NR 19.6837 122.934 main 158 158 __________P___ -1 19.6837 122.934 4 22 313
1923224N13143 1923 50 WP MM NOT_NAMED 1923-08-17 21:00:00 NR 20.3954 122.084 main 208 172 __________P___ -1 20.3954 122.084 4 21 311
1923224N13143 1923 50 WP MM NOT_NAMED 1923-08-17 22:00:00 NR 20.6000 121.800 main 172 119 __________O___ -1 20.6000 121.800 4 19 303
1923224N13143 1923 50 WP MM NOT_NAMED 1923-08-18 00:00:00 NR 20.9055 121.255 main 119 73 __________P___ -1 20.9055 121.255 4 17 297
1923224N13143 1923 50 WP MM NOT_NAMED 1923-08-18 03:00:00 NR 21.2639 120.434 main 73 73 __________P___ -1 21.2639 120.434 4 17 292
1923224N13143 1923 50 WP MM NOT_NAMED 1923-08-18 06:00:00 NR 21.5312 119.591 main 122 128 __________P___ -1 21.5312 119.591 4 17 286
1923224N13143 1923 50 WP MM NOT_NAMED 1923-08-18 09:00:00 NR 21.7387 118.707 main 187 187 __________P___ -1 21.7387 118.707 4 17 284
1923224N13143 1923 50 WP MM NOT_NAMED 1923-08-18 10:00:00 NR 21.8000 118.400 main 210 167 __________O___ -1 21.8000 118.400 4 18 284
1923224N13143 1923 50 WP MM NOT_NAMED 1923-08-18 12:00:00 NR 21.9545 117.764 main 167 94 __________P___ -1 21.9545 117.764 4 19 283
1923224N13143 1923 50 WP MM NOT_NAMED 1923-08-18 15:00:00 NR 22.1492 116.767 main 94 44 __________P___ -1 22.1492 116.767 4 19 280
1923224N13143 1923 50 WP MM NOT_NAMED 1923-08-18 18:00:00 NR 22.2941 115.729 main 45 11 __________P___ -1 22.2941 115.729 4 20 277
1923224N13143 1923 50 WP MM NOT_NAMED 1923-08-18 21:00:00 NR 22.3835 114.661 main 15 0 __________P___ -1 22.3835 114.661 4 20 275
1923224N13143 1923 50 WP MM NOT_NAMED 1923-08-18 22:00:00 NR 22.4000 114.300 main 0 0 __________O___ -1 22.4000 114.300 4 20 272
1923224N13143 1923 50 WP MM NOT_NAMED 1923-08-19 00:00:00 NR 22.4217 113.583 main 10 0 __________P___ -1 22.4217 113.583 4 20 270
1923224N13143 1923 50 WP MM NOT_NAMED 1923-08-19 03:00:00 NR 22.4048 112.489 main 0 0 __________P___ -1 22.4048 112.489 4 20 268
1923224N13143 1923 50 WP MM NOT_NAMED 1923-08-19 06:00:00 NR 22.3397 111.382 main 0 0 __________P___ -1 22.3397 111.382 4 21 265
1923224N13143 1923 50 WP MM NOT_NAMED 1923-08-19 09:00:00 NR 22.2392 110.270 main 0 0 __________P___ -1 22.2392 110.270 4 21 264
1923224N13143 1923 50 WP MM NOT_NAMED 1923-08-19 10:00:00 NR 22.2000 109.900 main 0 0 __________O___ -1 22.2000 109.900 4 21 263
1923224N13143 1923 50 WP MM NOT_NAMED 1923-08-19 12:00:00 NR 22.1155 109.161 main 0 0 __________P___ -1 22.1155 109.161 4 21 262
1923224N13143 1923 50 WP MM NOT_NAMED 1923-08-19 15:00:00 NR 21.9753 108.058 main 0 0 __________P___ -1 21.9753 108.058 4 21 262
1923224N13143 1923 50 WP MM NOT_NAMED 1923-08-19 18:00:00 NR 21.8215 106.959 main 0 0 __________P___ -1 21.8215 106.959 4 21 261
1923224N13143 1923 50 WP MM NOT_NAMED 1923-08-19 21:00:00 NR 21.6568 105.864 main 0 0 __________P___ -1 21.6568 105.864 4 21 261
1923224N13143 1923 50 WP MM NOT_NAMED 1923-08-19 22:00:00 NR 21.6000 105.500 main 0 __________O___ -1 21.6000 105.500 7 21 260

デジタル台風データ・検索

IBTrACS Databaseについて

本データベースは、米国NOAAが公開する1842年以降の世界の熱帯低気圧のベストトラックデータアーカイブInternational Best Track Archive for Climate Stewardship (IBTrACS)を、ウェブで閲覧しやすい形式に変換したものです。

最終更新日:2021-10-27